Northern Maine Medical Center (FTK)
Ft. Kent, ME
Field Elevation: 610
Lat: 47°16.09N  Long: 68°35.54W
   
    
Weather Advisories
2017-05-23   22:41 Z
Altimeter 29.74" Hg
Wind 310° @ 8 KT
Gusts 14 KT
Visibility 10 SM
Ceiling --
Temperature 17° C (63° F)
Dewpoint 7° C (45° F)
Relative Humidity 51%
Density Altitude --
Condensation Altitude 5,600 feet
Wind and Runways
Indicated Runway = 00
Headwind = 5 kt
Crosswind = 6 kt
History
 
 
 
More Info
All DigiWx sites map
 
NOAA Forecast
 
Airport IQ 5010
(KBXM) Brunswick, ME
(39N) Princeton, NJ
 
about DigiWx
 
FAA Disclaimer: The data displayed is for advisory purposes only and is not to be used for flight planning or operations. For official data, please call (not available) to hear the current automated AWOS voice message.
  METAR FTK 232241Z AUTO 31008G14KT VIS 10 SM 17/07 A2974